createdAt,value
2019-04-26T00:00:36.720Z,23.04
2019-04-26T00:01:38.828Z,23.08
2019-04-26T00:02:41.362Z,23.1
2019-04-26T00:03:43.390Z,23.1
2019-04-26T00:04:45.642Z,23.05
2019-04-26T00:05:47.899Z,23.02
2019-04-26T00:06:50.213Z,23.01
2019-04-26T00:07:52.455Z,22.98
2019-04-26T00:09:56.992Z,23.08
2019-04-26T00:10:59.269Z,23
2019-04-26T00:12:01.549Z,23.06
2019-04-26T00:13:03.809Z,23.05
2019-04-26T00:14:06.101Z,23.01
2019-04-26T00:15:08.350Z,23
2019-04-26T00:16:10.629Z,22.99
2019-04-26T00:17:13.131Z,23.07
2019-04-26T00:18:15.308Z,23.03
2019-04-26T00:19:17.439Z,23
2019-04-26T00:20:19.718Z,23.05
2019-04-26T00:21:22.105Z,23.02
2019-04-26T00:22:24.256Z,23.01
2019-04-26T00:23:26.533Z,22.97
2019-04-26T00:24:28.793Z,23.02
2019-04-26T00:25:31.076Z,22.94
2019-04-26T00:27:35.628Z,22.91
2019-04-26T00:28:37.881Z,22.9
2019-04-26T00:29:40.160Z,22.91
2019-04-26T00:30:42.427Z,22.88
2019-04-26T00:31:44.693Z,22.91
2019-04-26T00:32:47.058Z,22.96
2019-04-26T00:33:49.266Z,22.9
2019-04-26T00:34:51.558Z,22.89
2019-04-26T00:35:53.799Z,22.94
2019-04-26T00:36:56.152Z,22.93
2019-04-26T00:37:58.383Z,22.86
2019-04-26T00:39:00.606Z,22.94
2019-04-26T00:40:02.946Z,22.98
2019-04-26T00:41:05.271Z,23.02
2019-04-26T00:42:07.557Z,22.92
2019-04-26T00:43:09.752Z,22.9
2019-04-26T00:44:12.052Z,22.91
2019-04-26T00:45:14.341Z,22.9
2019-04-26T00:46:16.605Z,22.91
2019-04-26T00:47:18.801Z,22.93
2019-04-26T00:48:21.124Z,22.99
2019-04-26T00:49:23.470Z,22.91
2019-04-26T00:50:25.648Z,22.94
2019-04-26T00:51:27.903Z,22.9
2019-04-26T00:52:30.202Z,22.92
2019-04-26T00:53:32.440Z,23.02
2019-04-26T00:54:34.718Z,22.94
2019-04-26T00:55:37.085Z,22.93
2019-04-26T00:56:39.252Z,22.96
2019-04-26T00:57:41.550Z,22.87
2019-04-26T00:58:43.810Z,22.91
2019-04-26T00:59:46.070Z,22.87
2019-04-26T01:00:48.345Z,22.86
2019-04-26T01:01:50.619Z,22.89
2019-04-26T01:02:52.938Z,22.95
2019-04-26T01:03:55.158Z,22.95
2019-04-26T01:04:57.542Z,22.87
2019-04-26T01:05:59.804Z,22.83
2019-04-26T01:07:02.246Z,22.82
2019-04-26T01:08:04.380Z,22.88
2019-04-26T01:09:06.679Z,22.86
2019-04-26T01:11:11.044Z,22.86
2019-04-26T01:13:15.605Z,22.87
2019-04-26T01:14:17.887Z,22.95
2019-04-26T01:15:20.179Z,22.84
2019-04-26T01:16:22.452Z,22.85
2019-04-26T01:17:24.683Z,22.83
2019-04-26T01:18:27.240Z,22.81
2019-04-26T01:19:29.227Z,22.82
2019-04-26T01:20:31.524Z,22.87
2019-04-26T01:21:33.803Z,22.82
2019-04-26T01:22:36.043Z,22.86
2019-04-26T01:23:38.317Z,22.8
2019-04-26T01:24:40.585Z,22.78
2019-04-26T01:25:42.856Z,22.83
2019-04-26T01:26:45.132Z,22.82
2019-04-26T01:27:47.561Z,22.82
2019-04-26T01:28:49.985Z,22.81
2019-04-26T01:29:52.022Z,22.81
2019-04-26T01:30:54.236Z,22.81
2019-04-26T01:31:56.511Z,22.85
2019-04-26T01:32:58.858Z,22.85
2019-04-26T01:34:01.137Z,22.89
2019-04-26T01:35:03.315Z,22.85
2019-04-26T01:36:05.838Z,22.86
2019-04-26T01:37:07.850Z,22.85
2019-04-26T01:38:10.172Z,22.83
2019-04-26T01:39:12.495Z,22.85
2019-04-26T01:40:14.659Z,22.81
2019-04-26T01:41:17.004Z,22.81
2019-04-26T01:42:19.455Z,22.78
2019-04-26T01:43:21.877Z,22.79
2019-04-26T01:44:23.876Z,22.75
2019-04-26T01:45:26.305Z,22.78
2019-04-26T01:46:28.533Z,22.75
2019-04-26T01:47:30.793Z,22.74
2019-04-26T01:48:33.029Z,22.74
2019-04-26T01:49:35.396Z,22.69
2019-04-26T01:50:37.575Z,22.61
2019-04-26T01:51:39.888Z,22.72
2019-04-26T01:53:44.398Z,22.66
2019-04-26T01:54:46.681Z,22.74
2019-04-26T01:55:49.004Z,22.66
2019-04-26T01:56:51.384Z,22.66
2019-04-26T01:57:53.736Z,22.61
2019-04-26T01:58:55.794Z,22.59
2019-04-26T01:59:58.089Z,22.62
2019-04-26T02:01:00.297Z,22.65
2019-04-26T02:02:02.648Z,22.63
2019-04-26T02:03:04.942Z,22.69
2019-04-26T02:04:07.126Z,22.65
2019-04-26T02:05:09.407Z,22.62
2019-04-26T02:06:11.662Z,22.61
2019-04-26T02:07:13.968Z,22.69
2019-04-26T02:08:16.375Z,22.67
2019-04-26T02:09:18.576Z,22.68
2019-04-26T02:10:20.772Z,22.65
2019-04-26T02:11:23.044Z,22.7
2019-04-26T02:12:25.419Z,22.7
2019-04-26T02:13:27.624Z,22.69
2019-04-26T02:14:34.726Z,22.64
2019-04-26T02:15:32.233Z,22.66
2019-04-26T02:16:34.389Z,22.66
2019-04-26T02:17:36.668Z,22.67
2019-04-26T02:18:39.006Z,22.66
2019-04-26T02:19:41.226Z,22.66
2019-04-26T02:20:43.546Z,22.73
2019-04-26T02:21:45.832Z,22.71
2019-04-26T02:22:48.011Z,22.67
2019-04-26T02:23:50.355Z,22.66
2019-04-26T02:24:52.566Z,22.66
2019-04-26T02:25:58.173Z,22.65
2019-04-26T02:26:57.111Z,22.65
2019-04-26T02:27:59.371Z,22.65
2019-04-26T02:29:01.648Z,22.67
2019-04-26T02:30:04.005Z,22.65
2019-04-26T02:31:06.197Z,22.7
2019-04-26T02:32:08.542Z,22.63
2019-04-26T02:33:10.786Z,22.68
2019-04-26T02:34:13.191Z,22.67
2019-04-26T02:35:15.292Z,22.66
2019-04-26T02:36:19.748Z,22.63
2019-04-26T02:37:19.934Z,22.66
2019-04-26T02:38:22.214Z,22.63
2019-04-26T02:39:24.392Z,22.66
2019-04-26T02:40:26.685Z,22.71
2019-04-26T02:41:28.972Z,22.73
2019-04-26T02:42:31.213Z,22.66
2019-04-26T02:43:35.708Z,22.65
2019-04-26T02:44:35.751Z,22.65
2019-04-26T02:45:38.079Z,22.64
2019-04-26T02:46:40.301Z,22.7
2019-04-26T02:47:42.680Z,22.69
2019-04-26T02:48:49.367Z,22.69
2019-04-26T02:49:47.258Z,22.67
2019-04-26T02:50:49.477Z,22.66
2019-04-26T02:51:51.752Z,22.64
2019-04-26T02:52:54.020Z,22.63
2019-04-26T02:53:56.310Z,22.62
2019-04-26T02:54:58.582Z,22.63
2019-04-26T02:56:00.843Z,22.62
2019-04-26T02:57:03.126Z,22.59
2019-04-26T02:58:05.404Z,22.55
2019-04-26T02:59:07.677Z,22.62
2019-04-26T03:00:09.942Z,22.61
2019-04-26T03:01:12.291Z,22.61
2019-04-26T03:02:14.469Z,22.61
2019-04-26T03:03:16.941Z,22.59
2019-04-26T03:04:19.022Z,22.6
2019-04-26T03:05:21.330Z,22.63
2019-04-26T03:06:23.565Z,22.6
2019-04-26T03:07:25.972Z,22.6
2019-04-26T03:08:28.117Z,22.64
2019-04-26T03:09:30.563Z,22.61
2019-04-26T03:10:32.663Z,22.61
2019-04-26T03:11:34.931Z,22.59
2019-04-26T03:12:37.230Z,22.62
2019-04-26T03:13:39.900Z,22.6
2019-04-26T03:14:41.750Z,22.62
2019-04-26T03:15:44.015Z,22.62
2019-04-26T03:16:46.402Z,22.66
2019-04-26T03:17:48.965Z,22.65
2019-04-26T03:18:50.835Z,22.64
2019-04-26T03:19:53.208Z,22.61
2019-04-26T03:20:55.380Z,22.61
2019-04-26T03:22:00.938Z,22.59
2019-04-26T03:22:59.980Z,22.59
2019-04-26T03:24:02.212Z,22.6
2019-04-26T03:25:04.493Z,22.65
2019-04-26T03:27:09.017Z,22.61
2019-04-26T03:28:11.293Z,22.6
2019-04-26T03:29:13.692Z,22.59
2019-04-26T03:30:15.836Z,22.6
2019-04-26T03:31:18.261Z,22.6
2019-04-26T03:32:20.413Z,22.62
2019-04-26T03:33:22.669Z,22.58
2019-04-26T03:34:24.934Z,22.58
2019-04-26T03:35:27.288Z,22.62
2019-04-26T03:36:33.258Z,22.61
2019-04-26T03:37:31.749Z,22.59
2019-04-26T03:38:34.046Z,22.59
2019-04-26T03:39:36.422Z,22.58
2019-04-26T03:40:38.551Z,22.58
2019-04-26T03:41:40.823Z,22.58
2019-04-26T03:42:43.101Z,22.58
2019-04-26T03:43:45.388Z,22.54
2019-04-26T03:44:47.668Z,22.57
2019-04-26T03:45:49.925Z,22.56
2019-04-26T03:46:52.239Z,22.58
2019-04-26T03:47:54.588Z,22.56
2019-04-26T03:48:56.752Z,22.58
2019-04-26T03:50:00.552Z,22.58
2019-04-26T03:51:01.414Z,22.61
2019-04-26T03:52:03.649Z,22.59
2019-04-26T03:53:06.083Z,22.52
2019-04-26T03:54:08.313Z,22.52
2019-04-26T03:55:10.650Z,22.54
2019-04-26T03:56:12.889Z,22.52
2019-04-26T03:57:15.384Z,22.5
2019-04-26T03:58:17.381Z,22.54
2019-04-26T03:59:19.578Z,22.48
2019-04-26T04:00:21.831Z,22.54
2019-04-26T04:01:24.304Z,22.55
2019-04-26T04:02:26.461Z,22.53
2019-04-26T04:03:28.673Z,22.52
2019-04-26T04:04:30.929Z,22.5
2019-04-26T04:05:33.193Z,22.47
2019-04-26T04:06:35.464Z,22.48
2019-04-26T04:07:37.744Z,22.5
2019-04-26T04:08:40.011Z,22.5
2019-04-26T04:09:42.319Z,22.49
2019-04-26T04:10:44.579Z,22.48
2019-04-26T04:11:49.592Z,22.49
2019-04-26T04:12:49.267Z,22.58
2019-04-26T04:13:51.504Z,22.53
2019-04-26T04:14:53.655Z,22.54
2019-04-26T04:15:55.952Z,22.46
2019-04-26T04:16:58.244Z,22.41
2019-04-26T04:18:00.509Z,22.5
2019-04-26T04:19:02.724Z,22.5
2019-04-26T04:20:05.004Z,22.44
2019-04-26T04:21:07.279Z,22.5
2019-04-26T04:22:09.778Z,22.47
2019-04-26T04:23:11.881Z,22.51
2019-04-26T04:24:14.094Z,22.57
2019-04-26T04:25:16.359Z,22.54
2019-04-26T04:26:18.848Z,22.51
2019-04-26T04:27:24.759Z,22.54
2019-04-26T04:28:23.294Z,22.56
2019-04-26T04:29:25.455Z,22.57
2019-04-26T04:30:27.726Z,22.38
2019-04-26T04:31:29.990Z,22.4
2019-04-26T04:32:32.283Z,22.42
2019-04-26T04:33:34.688Z,22.44
2019-04-26T04:34:36.860Z,22.48
2019-04-26T04:35:43.613Z,22.5
2019-04-26T04:36:41.336Z,22.51
2019-04-26T04:37:43.644Z,22.51
2019-04-26T04:38:45.989Z,22.47
2019-04-26T04:39:48.265Z,22.42
2019-04-26T04:40:50.475Z,22.38
2019-04-26T04:41:52.708Z,22.43
2019-04-26T04:42:54.987Z,22.39
2019-04-26T04:43:57.270Z,22.43
2019-04-26T04:44:59.531Z,22.38
2019-04-26T04:46:01.920Z,22.34
2019-04-26T04:47:04.074Z,22.34
2019-04-26T04:48:06.387Z,22.23
2019-04-26T04:49:08.661Z,22.28
2019-04-26T04:50:10.924Z,22.36
2019-04-26T04:51:13.189Z,22.27
2019-04-26T04:52:15.545Z,22.32
2019-04-26T04:53:17.929Z,22.3
2019-04-26T04:54:20.084Z,22.42
2019-04-26T04:55:22.374Z,22.42
2019-04-26T04:56:26.940Z,22.34
2019-04-26T04:57:26.910Z,22.38
2019-04-26T04:58:29.165Z,22.36
2019-04-26T04:59:31.468Z,22.37
2019-04-26T05:00:33.698Z,22.43
2019-04-26T05:01:36.035Z,22.4
2019-04-26T05:02:38.307Z,22.32
2019-04-26T05:03:40.531Z,22.24
2019-04-26T05:04:43.083Z,22.19
2019-04-26T05:05:45.212Z,22.28
2019-04-26T05:06:50.132Z,22.18
2019-04-26T05:07:49.646Z,22.14
2019-04-26T05:08:51.935Z,22.21
2019-04-26T05:09:54.253Z,22.34
2019-04-26T05:10:56.457Z,22.25
2019-04-26T05:11:58.702Z,22.25
2019-04-26T05:13:01.011Z,22.22
2019-04-26T05:14:03.254Z,22.3
2019-04-26T05:15:05.536Z,22.15
2019-04-26T05:16:07.850Z,22.18
2019-04-26T05:17:10.110Z,22.19
2019-04-26T05:18:12.365Z,22.11
2019-04-26T05:19:14.650Z,22.16
2019-04-26T05:20:16.942Z,22.16
2019-04-26T05:21:19.154Z,22.2
2019-04-26T05:22:21.494Z,22.23
2019-04-26T05:23:23.825Z,22.22
2019-04-26T05:24:26.020Z,22.23
2019-04-26T05:25:28.367Z,22.21
2019-04-26T05:26:30.550Z,22.2
2019-04-26T05:27:32.868Z,22.27
2019-04-26T05:28:35.056Z,22.17
2019-04-26T05:29:37.333Z,22.19
2019-04-26T05:30:39.608Z,22.23
2019-04-26T05:31:41.875Z,22.15
2019-04-26T05:32:44.179Z,22.21
2019-04-26T05:33:46.454Z,22.15
2019-04-26T05:34:48.813Z,22.16
2019-04-26T05:35:50.971Z,22.3
2019-04-26T05:36:53.328Z,22.32
2019-04-26T05:37:55.560Z,22.37
2019-04-26T05:38:57.784Z,22.37
2019-04-26T05:40:00.143Z,22.38
2019-04-26T05:41:02.431Z,22.36
2019-04-26T05:42:04.608Z,22.22
2019-04-26T05:43:06.919Z,22.33
2019-04-26T05:44:09.160Z,22.36
2019-04-26T05:45:11.425Z,22.34
2019-04-26T05:46:13.721Z,22.36
2019-04-26T05:47:15.989Z,22.3
2019-04-26T05:48:18.303Z,22.3
2019-04-26T05:49:20.600Z,22.31
2019-04-26T05:50:22.822Z,22.24
2019-04-26T05:51:25.083Z,22.23
2019-04-26T05:52:27.463Z,22.38
2019-04-26T05:53:29.704Z,22.35
2019-04-26T05:54:31.974Z,22.37
2019-04-26T05:55:34.302Z,22.36
2019-04-26T05:56:36.609Z,22.27
2019-04-26T05:57:38.910Z,22.24
2019-04-26T05:58:41.071Z,22.3
2019-04-26T05:59:43.413Z,22.22
2019-04-26T06:00:45.794Z,22.2
2019-04-26T06:01:47.877Z,22.23
2019-04-26T06:02:50.259Z,22.29
2019-04-26T06:03:52.425Z,22.25
2019-04-26T06:04:54.759Z,22.24
2019-04-26T06:05:56.968Z,22.19
2019-04-26T06:06:59.334Z,22.2
2019-04-26T06:08:01.523Z,22.2
2019-04-26T06:09:03.812Z,22.15
2019-04-26T06:10:06.058Z,22.2
2019-04-26T06:11:08.345Z,22.17
2019-04-26T06:12:10.620Z,22.14
2019-04-26T06:13:12.868Z,22.13
2019-04-26T06:14:15.141Z,22.15
2019-04-26T06:15:17.975Z,22.13
2019-04-26T06:16:19.685Z,22.15
2019-04-26T06:17:21.955Z,22.12
2019-04-26T06:18:24.241Z,22.12
2019-04-26T06:19:26.567Z,22.08
2019-04-26T06:20:28.767Z,22.12
2019-04-26T06:21:31.054Z,22.09
2019-04-26T06:22:33.419Z,22.12
2019-04-26T06:23:37.734Z,22.11
2019-04-26T06:24:37.880Z,22.12
2019-04-26T06:25:40.258Z,22.12
2019-04-26T06:26:42.532Z,22.12
2019-04-26T06:27:44.709Z,22.11
2019-04-26T06:28:46.974Z,22.1
2019-04-26T06:29:49.229Z,22.13
2019-04-26T06:30:51.548Z,22.1
2019-04-26T06:31:57.600Z,22.1
2019-04-26T06:32:56.123Z,22.08
2019-04-26T06:33:58.450Z,22.1
2019-04-26T06:35:00.600Z,22.11
2019-04-26T06:36:02.917Z,22.11
2019-04-26T06:37:05.200Z,22.09
2019-04-26T06:38:07.405Z,22.08
2019-04-26T06:39:09.683Z,22.1
2019-04-26T06:40:11.954Z,22.07
2019-04-26T06:41:14.305Z,22.05
2019-04-26T06:42:16.524Z,22.07
2019-04-26T06:43:18.787Z,22.05
2019-04-26T06:44:21.038Z,22.07
2019-04-26T06:45:23.355Z,22.06
2019-04-26T06:46:25.691Z,22.02
2019-04-26T06:47:27.959Z,22.04
2019-04-26T06:48:30.137Z,22.11
2019-04-26T06:49:32.420Z,22.15
2019-04-26T06:50:34.898Z,22.11
2019-04-26T06:51:36.964Z,22.09
2019-04-26T06:52:39.222Z,22.12
2019-04-26T06:53:41.493Z,22.08
2019-04-26T06:54:43.853Z,22.08
2019-04-26T06:55:46.547Z,22.1
2019-04-26T06:56:48.380Z,22.08
2019-04-26T06:57:53.762Z,22.08
2019-04-26T06:58:52.940Z,22.1
2019-04-26T06:59:55.206Z,22.05
2019-04-26T07:00:57.473Z,22.07
2019-04-26T07:01:59.782Z,22.04
2019-04-26T07:03:02.030Z,21.99
2019-04-26T07:04:04.353Z,22.1
2019-04-26T07:05:06.629Z,22.08
2019-04-26T07:06:08.790Z,22.06
2019-04-26T07:07:11.344Z,22.05
2019-04-26T07:08:13.318Z,22.03
2019-04-26T07:09:15.622Z,21.99
2019-04-26T07:10:17.866Z,22.04
2019-04-26T07:11:20.241Z,22.08
2019-04-26T07:12:22.435Z,22.04
2019-04-26T07:13:24.823Z,22.01
2019-04-26T07:14:26.954Z,21.99
2019-04-26T07:15:29.259Z,21.91
2019-04-26T07:16:31.636Z,21.97
2019-04-26T07:17:33.959Z,22.04
2019-04-26T07:18:36.052Z,22.01
2019-04-26T07:19:38.334Z,22.1
2019-04-26T07:20:40.623Z,22.16
2019-04-26T07:21:42.857Z,22.13
2019-04-26T07:22:45.177Z,22.13
2019-04-26T07:23:47.407Z,22.08
2019-04-26T07:24:49.678Z,22.02
2019-04-26T07:25:52.025Z,22.05
2019-04-26T07:26:54.240Z,22.05
2019-04-26T07:27:56.580Z,21.95
2019-04-26T07:28:58.777Z,22
2019-04-26T07:30:01.083Z,21.99
2019-04-26T07:31:03.358Z,21.97
2019-04-26T07:32:07.837Z,22.01
2019-04-26T07:33:07.937Z,21.95
2019-04-26T07:34:10.159Z,21.98
2019-04-26T07:35:12.391Z,22.04
2019-04-26T07:36:14.680Z,22.01
2019-04-26T07:37:17.039Z,21.95
2019-04-26T07:38:19.252Z,22.01
2019-04-26T07:39:21.598Z,22.03
2019-04-26T07:40:23.775Z,21.99
2019-04-26T07:41:26.252Z,21.96
2019-04-26T07:42:28.324Z,21.96
2019-04-26T07:43:30.602Z,21.92
2019-04-26T07:44:32.864Z,21.97
2019-04-26T07:45:35.416Z,21.97
2019-04-26T07:46:37.534Z,21.98
2019-04-26T07:47:39.790Z,21.97
2019-04-26T07:48:42.046Z,21.96
2019-04-26T07:49:44.386Z,21.91
2019-04-26T07:50:46.630Z,21.83
2019-04-26T07:51:48.951Z,21.89
2019-04-26T07:52:51.132Z,21.85
2019-04-26T07:53:53.410Z,21.87
2019-04-26T07:54:55.759Z,21.86
2019-04-26T07:55:58.840Z,21.88
2019-04-26T07:57:00.358Z,21.89
2019-04-26T07:58:02.512Z,21.9
2019-04-26T07:59:04.879Z,21.87
2019-04-26T08:00:07.773Z,21.86
2019-04-26T08:01:09.604Z,21.84
2019-04-26T08:02:11.754Z,21.89
2019-04-26T08:03:13.968Z,21.89
2019-04-26T08:04:16.228Z,21.85
2019-04-26T08:05:18.661Z,21.86
2019-04-26T08:06:20.758Z,21.87
2019-04-26T08:07:23.103Z,21.87
2019-04-26T08:08:25.323Z,21.87
2019-04-26T08:09:27.589Z,21.88
2019-04-26T08:10:29.855Z,21.93
2019-04-26T08:11:34.714Z,21.9
2019-04-26T08:12:34.393Z,21.88
2019-04-26T08:13:36.819Z,21.9
2019-04-26T08:14:38.963Z,21.9
2019-04-26T08:15:41.327Z,21.83
2019-04-26T08:16:43.564Z,21.86
2019-04-26T08:17:45.767Z,21.83
2019-04-26T08:18:48.040Z,21.82
2019-04-26T08:19:50.580Z,21.83
2019-04-26T08:20:52.626Z,21.85
2019-04-26T08:21:54.866Z,21.87
2019-04-26T08:22:57.129Z,21.87
2019-04-26T08:23:59.402Z,21.82
2019-04-26T08:25:01.718Z,21.83
2019-04-26T08:26:04.073Z,21.82
2019-04-26T08:27:06.342Z,21.84
2019-04-26T08:28:08.506Z,21.84
2019-04-26T08:29:10.921Z,21.82
2019-04-26T08:30:13.065Z,21.79
2019-04-26T08:31:15.378Z,21.81
2019-04-26T08:32:17.596Z,21.86
2019-04-26T08:33:19.882Z,21.9
2019-04-26T08:34:22.133Z,21.87
2019-04-26T08:35:24.574Z,21.81
2019-04-26T08:36:26.820Z,21.8
2019-04-26T08:37:28.995Z,21.88
2019-04-26T08:38:31.204Z,21.9
2019-04-26T08:39:33.511Z,21.87
2019-04-26T08:40:35.749Z,21.78
2019-04-26T08:41:38.153Z,21.82
2019-04-26T08:42:40.421Z,21.77
2019-04-26T08:43:42.581Z,21.79
2019-04-26T08:44:44.979Z,21.76
2019-04-26T08:45:47.141Z,21.79
2019-04-26T08:46:49.408Z,21.75
2019-04-26T08:47:51.805Z,21.86
2019-04-26T08:48:53.958Z,21.85
2019-04-26T08:49:56.233Z,21.85
2019-04-26T08:50:58.708Z,21.77
2019-04-26T08:52:00.754Z,21.81
2019-04-26T08:53:03.044Z,21.8
2019-04-26T08:54:05.398Z,21.81
2019-04-26T08:55:07.822Z,21.8
2019-04-26T08:56:14.084Z,21.75
2019-04-26T08:57:12.115Z,21.71
2019-04-26T08:58:14.389Z,21.69
2019-04-26T08:59:16.662Z,21.71
2019-04-26T09:00:18.959Z,21.74
2019-04-26T09:01:21.368Z,21.79
2019-04-26T09:02:23.649Z,21.69
2019-04-26T09:03:25.984Z,21.67
2019-04-26T09:04:28.142Z,21.68
2019-04-26T09:05:30.388Z,21.7
2019-04-26T09:06:32.659Z,21.78
2019-04-26T09:07:34.969Z,21.71
2019-04-26T09:08:37.212Z,21.72
2019-04-26T09:09:39.482Z,21.68
2019-04-26T09:10:41.892Z,21.65
2019-04-26T09:11:44.095Z,21.67
2019-04-26T09:12:46.288Z,21.68
2019-04-26T09:13:48.608Z,21.67
2019-04-26T09:14:50.860Z,21.71
2019-04-26T09:15:53.165Z,21.71
2019-04-26T09:16:55.379Z,21.82
2019-04-26T09:17:57.764Z,21.78
2019-04-26T09:19:00.257Z,21.75
2019-04-26T09:20:02.268Z,21.77
2019-04-26T09:21:05.930Z,21.69
2019-04-26T09:22:06.880Z,21.71
2019-04-26T09:23:09.100Z,21.7
2019-04-26T09:24:11.304Z,21.7
2019-04-26T09:25:13.636Z,21.66
2019-04-26T09:26:17.223Z,21.69
2019-04-26T09:27:18.122Z,21.75
2019-04-26T09:28:20.537Z,21.66
2019-04-26T09:29:22.681Z,21.65
2019-04-26T09:30:24.947Z,21.65
2019-04-26T09:31:27.197Z,21.64
2019-04-26T09:32:29.532Z,21.71
2019-04-26T09:33:32.034Z,21.64
2019-04-26T09:34:34.037Z,21.63
2019-04-26T09:35:36.322Z,21.65
2019-04-26T09:37:40.880Z,21.65
2019-04-26T09:38:43.125Z,21.63
2019-04-26T09:39:48.235Z,21.7
2019-04-26T09:40:47.780Z,21.64
2019-04-26T09:41:50.444Z,21.72
2019-04-26T09:42:52.244Z,21.66
2019-04-26T09:43:54.683Z,21.67
2019-04-26T09:44:57.756Z,21.64
2019-04-26T09:45:59.033Z,21.71
2019-04-26T09:47:05.447Z,21.63
2019-04-26T09:48:03.668Z,21.65
2019-04-26T09:49:05.855Z,21.68
2019-04-26T09:50:08.270Z,21.66
2019-04-26T09:51:10.402Z,21.68
2019-04-26T09:52:12.770Z,21.66
2019-04-26T09:53:14.936Z,21.7
2019-04-26T09:54:21.240Z,21.64
2019-04-26T09:55:19.620Z,21.65
2019-04-26T09:56:21.958Z,21.69
2019-04-26T09:57:24.065Z,21.68
2019-04-26T09:58:26.816Z,21.71
2019-04-26T09:59:28.669Z,21.65
2019-04-26T10:00:30.890Z,21.7
2019-04-26T10:01:33.133Z,21.66
2019-04-26T10:02:35.670Z,21.77
2019-04-26T10:03:37.770Z,21.67
2019-04-26T10:04:40.214Z,21.75
2019-04-26T10:05:42.383Z,21.66
2019-04-26T10:06:44.600Z,21.65
2019-04-26T10:07:46.944Z,21.68
2019-04-26T10:08:49.145Z,21.71
2019-04-26T10:09:51.570Z,21.71
2019-04-26T10:10:53.828Z,21.67
2019-04-26T10:11:55.978Z,21.8
2019-04-26T10:12:58.264Z,21.69
2019-04-26T10:14:00.528Z,21.72
2019-04-26T10:15:02.795Z,21.68
2019-04-26T10:16:05.064Z,21.79
2019-04-26T10:17:07.407Z,21.71
2019-04-26T10:18:09.587Z,21.7
2019-04-26T10:19:11.875Z,21.75
2019-04-26T10:20:14.229Z,21.67
2019-04-26T10:21:16.411Z,21.62
2019-04-26T10:22:18.690Z,21.66
2019-04-26T10:23:21.028Z,21.64
2019-04-26T10:24:23.547Z,21.66
2019-04-26T10:25:25.533Z,21.67
2019-04-26T10:26:27.794Z,21.68
2019-04-26T10:27:30.079Z,21.65
2019-04-26T10:28:32.344Z,21.69
2019-04-26T10:29:34.615Z,21.83
2019-04-26T10:30:36.892Z,21.8
2019-04-26T10:31:39.160Z,21.85
2019-04-26T10:32:41.513Z,21.78
2019-04-26T10:33:43.731Z,21.75
2019-04-26T10:34:46.024Z,21.66
2019-04-26T10:35:48.260Z,21.77
2019-04-26T10:36:54.993Z,21.84
2019-04-26T10:37:52.829Z,21.82
2019-04-26T10:38:55.113Z,21.82
2019-04-26T10:39:57.399Z,21.75
2019-04-26T10:40:59.633Z,21.81
2019-04-26T10:42:01.884Z,21.75
2019-04-26T10:43:04.165Z,21.89
2019-04-26T10:44:06.615Z,21.83
2019-04-26T10:45:08.794Z,21.85
2019-04-26T10:46:11.035Z,21.82
2019-04-26T10:47:13.290Z,21.78
2019-04-26T10:48:15.622Z,21.83
2019-04-26T10:49:18.159Z,21.79
2019-04-26T10:50:20.125Z,21.85
2019-04-26T10:51:22.553Z,21.86
2019-04-26T10:52:24.647Z,21.87
2019-04-26T10:53:26.928Z,21.85
2019-04-26T10:54:29.222Z,21.96
2019-04-26T10:55:32.249Z,21.96
2019-04-26T10:56:36.697Z,21.99
2019-04-26T10:57:36.218Z,21.96
2019-04-26T10:58:38.275Z,21.93
2019-04-26T10:59:40.609Z,21.86
2019-04-26T11:00:42.901Z,21.84
2019-04-26T11:01:45.226Z,21.79
2019-04-26T11:02:47.364Z,21.88
2019-04-26T11:03:49.795Z,21.89
2019-04-26T11:04:51.921Z,21.93
2019-04-26T11:05:54.306Z,21.96
2019-04-26T11:06:56.833Z,21.98
2019-04-26T11:07:58.855Z,21.99
2019-04-26T11:09:01.259Z,21.98
2019-04-26T11:10:03.386Z,22.05
2019-04-26T11:11:05.656Z,22.08
2019-04-26T11:12:07.916Z,22.03
2019-04-26T11:13:10.326Z,21.93
2019-04-26T11:14:12.631Z,21.92
2019-04-26T11:15:14.731Z,21.87
2019-04-26T11:16:17.053Z,21.89
2019-04-26T11:17:19.289Z,21.87
2019-04-26T11:18:21.596Z,21.9
2019-04-26T11:19:23.856Z,21.94
2019-04-26T11:20:26.134Z,21.86
2019-04-26T11:21:28.390Z,21.95
2019-04-26T11:22:30.693Z,21.98
2019-04-26T11:23:33.001Z,22.01
2019-04-26T11:24:35.220Z,21.97
2019-04-26T11:25:41.649Z,21.98
2019-04-26T11:27:42.102Z,21.96
2019-04-26T11:28:44.284Z,21.99
2019-04-26T11:29:46.595Z,21.97
2019-04-26T11:30:48.854Z,21.88
2019-04-26T11:31:51.110Z,21.83
2019-04-26T11:32:53.431Z,21.89
2019-04-26T11:33:55.696Z,21.91
2019-04-26T11:34:57.974Z,21.95
2019-04-26T11:36:02.492Z,22.02
2019-04-26T11:37:02.715Z,21.93
2019-04-26T11:38:06.299Z,21.89
2019-04-26T11:39:07.309Z,21.94
2019-04-26T11:40:09.345Z,21.96
2019-04-26T11:41:11.628Z,21.88
2019-04-26T11:42:13.936Z,21.89
2019-04-26T11:43:16.238Z,21.86
2019-04-26T11:44:23.770Z,21.96
2019-04-26T11:45:20.703Z,22
2019-04-26T11:46:23.022Z,22
2019-04-26T11:47:25.227Z,21.96
2019-04-26T11:48:27.513Z,21.94
2019-04-26T11:49:29.766Z,21.94
2019-04-26T11:50:34.897Z,21.99
2019-04-26T11:51:34.333Z,21.9
2019-04-26T11:52:36.678Z,22.01
2019-04-26T11:53:38.865Z,21.95
2019-04-26T11:54:41.159Z,21.96
2019-04-26T11:55:49.041Z,21.97
2019-04-26T11:56:46.006Z,22.02
2019-04-26T11:57:48.017Z,21.89
2019-04-26T11:58:50.405Z,21.94
2019-04-26T11:59:52.650Z,21.97
2019-04-26T12:00:54.770Z,21.89
2019-04-26T12:01:57.177Z,21.97
2019-04-26T12:02:59.350Z,21.93
2019-04-26T12:04:01.647Z,21.95
2019-04-26T12:05:03.871Z,21.87
2019-04-26T12:06:06.394Z,21.88
2019-04-26T12:07:08.428Z,21.96
2019-04-26T12:08:10.836Z,21.96
2019-04-26T12:10:15.361Z,22.02
2019-04-26T12:11:17.615Z,22
2019-04-26T12:12:19.917Z,22
2019-04-26T12:13:22.181Z,22.03
2019-04-26T12:14:24.565Z,22.05
2019-04-26T12:15:26.725Z,22.02
2019-04-26T12:16:28.957Z,22.02
2019-04-26T12:17:31.407Z,22
2019-04-26T12:18:33.508Z,22
2019-04-26T12:19:35.920Z,22.05
2019-04-26T12:21:40.407Z,22
2019-04-26T12:22:42.628Z,22.05
2019-04-26T12:23:44.947Z,22.04
2019-04-26T12:24:47.315Z,21.99
2019-04-26T12:25:50.465Z,22
2019-04-26T12:26:52.747Z,22.06
2019-04-26T12:27:54.017Z,21.99
2019-04-26T12:28:56.547Z,22.02
2019-04-26T12:29:58.811Z,21.91
2019-04-26T12:31:01.014Z,22
2019-04-26T12:32:03.099Z,22.03
2019-04-26T12:33:05.480Z,22.03
2019-04-26T12:34:07.686Z,22
2019-04-26T12:35:10.258Z,21.89
2019-04-26T12:36:12.281Z,21.92
2019-04-26T12:37:14.472Z,21.96
2019-04-26T12:38:16.952Z,22
2019-04-26T12:39:19.052Z,21.97
2019-04-26T12:40:21.387Z,21.89
2019-04-26T12:41:23.731Z,21.95
2019-04-26T12:42:25.998Z,22
2019-04-26T12:43:28.156Z,22.03
2019-04-26T12:44:30.493Z,22.05
2019-04-26T12:45:32.699Z,22
2019-04-26T12:46:35.045Z,22.04
2019-04-26T12:47:37.720Z,22.04
2019-04-26T12:48:39.612Z,22.04
2019-04-26T12:49:41.786Z,22.08
2019-04-26T12:50:44.061Z,22.07
2019-04-26T12:51:46.349Z,22.07
2019-04-26T12:52:48.644Z,22.06
2019-04-26T12:53:50.986Z,22.02
2019-04-26T12:54:53.226Z,22.05
2019-04-26T12:57:05.383Z,22.13
2019-04-26T12:57:06.087Z,22.13
2019-04-26T12:58:00.036Z,22.07
2019-04-26T12:59:02.231Z,22.05
2019-04-26T13:00:04.496Z,22.08
2019-04-26T13:01:07.392Z,22.11
2019-04-26T13:02:09.038Z,22.11
2019-04-26T13:03:11.383Z,22.09
2019-04-26T13:04:13.689Z,22.07
2019-04-26T13:05:20.456Z,22.02
2019-04-26T13:06:18.274Z,22.09
2019-04-26T13:07:20.529Z,22.05
2019-04-26T13:08:22.821Z,22.07
2019-04-26T13:09:25.184Z,22.07
2019-04-26T13:10:27.344Z,22.11
2019-04-26T13:11:29.614Z,22.12
2019-04-26T13:12:32.035Z,22.08
2019-04-26T13:13:34.151Z,22.06
2019-04-26T13:14:36.518Z,22.02
2019-04-26T13:15:38.752Z,22.08
2019-04-26T13:16:40.993Z,22.06
2019-04-26T13:17:43.252Z,22.09
2019-04-26T13:18:45.532Z,22.11
2019-04-26T13:19:47.817Z,22.12
2019-04-26T13:20:50.912Z,22.09
2019-04-26T13:21:52.348Z,22.13
2019-04-26T13:22:54.738Z,22.13
2019-04-26T13:24:59.179Z,22.11
2019-04-26T13:26:03.113Z,22.12
2019-04-26T13:27:03.711Z,22.07
2019-04-26T13:28:05.978Z,22.03
2019-04-26T13:29:08.260Z,21.96
2019-04-26T13:30:10.543Z,22.06
2019-04-26T13:31:12.832Z,22.01
2019-04-26T13:32:15.153Z,22.04
2019-04-26T13:33:17.422Z,22.02
2019-04-26T13:34:19.622Z,22.11
2019-04-26T13:35:22.014Z,22.11
2019-04-26T13:36:24.193Z,22.05
2019-04-26T13:37:26.445Z,22.1